sensor_id;sensor_type;location;lat;lon;timestamp;pressure;altitude;pressure_sealevel;temperature;humidity
50093;BME280;35974;47.752;10.290;2022-09-03T00:01:07;93568.38;;;14.45;83.45
50093;BME280;35974;47.752;10.290;2022-09-03T00:03:49;93573.63;;;14.45;83.50
50093;BME280;35974;47.752;10.290;2022-09-03T00:06:35;93552.00;;;14.14;82.50
50093;BME280;35974;47.752;10.290;2022-09-03T00:09:13;93584.69;;;14.18;81.12
50093;BME280;35974;47.752;10.290;2022-09-03T00:11:51;93591.63;;;13.72;82.59
50093;BME280;35974;47.752;10.290;2022-09-03T00:14:23;93587.06;;;13.55;85.78
50093;BME280;35974;47.752;10.290;2022-09-03T00:16:54;93571.75;;;13.52;84.59
50093;BME280;35974;47.752;10.290;2022-09-03T00:19:27;93572.31;;;13.43;84.97
50093;BME280;35974;47.752;10.290;2022-09-03T00:22:01;93577.59;;;13.43;86.07
50093;BME280;35974;47.752;10.290;2022-09-03T00:24:33;93555.38;;;13.27;85.77
50093;BME280;35974;47.752;10.290;2022-09-03T00:27:05;93558.44;;;13.24;85.40
50093;BME280;35974;47.752;10.290;2022-09-03T00:35:29;93571.25;;;13.32;85.27
50093;BME280;35974;47.752;10.290;2022-09-03T00:37:58;93568.66;;;13.55;84.55
50093;BME280;35974;47.752;10.290;2022-09-03T00:46:25;93578.22;;;13.14;84.90
50093;BME280;35974;47.752;10.290;2022-09-03T00:54:42;93574.78;;;13.02;85.02
50093;BME280;35974;47.752;10.290;2022-09-03T01:00:12;93579.72;;;12.80;85.69
50093;BME280;35974;47.752;10.290;2022-09-03T01:08:27;93577.59;;;12.89;86.27
50093;BME280;35974;47.752;10.290;2022-09-03T01:16:36;93578.03;;;12.86;84.62
50093;BME280;35974;47.752;10.290;2022-09-03T01:20:00;93573.06;;;12.66;85.51
50093;BME280;35974;47.752;10.290;2022-09-03T01:25:19;93577.06;;;12.56;83.92
50093;BME280;35974;47.752;10.290;2022-09-03T01:30:37;93538.91;;;12.54;83.14
50093;BME280;35974;47.752;10.290;2022-09-03T01:33:21;93566.34;;;12.58;83.46
50093;BME280;35974;47.752;10.290;2022-09-03T01:36:02;93507.25;;;12.06;85.18
50093;BME280;35974;47.752;10.290;2022-09-03T01:39:22;93558.47;;;12.39;86.28
50093;BME280;35974;47.752;10.290;2022-09-03T01:47:39;93578.78;;;12.32;88.24
50093;BME280;35974;47.752;10.290;2022-09-03T01:50:27;93584.91;;;12.26;89.34
50093;BME280;35974;47.752;10.290;2022-09-03T01:53:17;93580.09;;;12.23;89.02
50093;BME280;35974;47.752;10.290;2022-09-03T01:56:21;93546.03;;;12.04;88.69
50093;BME280;35974;47.752;10.290;2022-09-03T01:59:14;93593.56;;;12.45;87.52
50093;BME280;35974;47.752;10.290;2022-09-03T02:01:57;93583.66;;;12.59;86.63
50093;BME280;35974;47.752;10.290;2022-09-03T02:04:26;93579.91;;;12.36;88.86
50093;BME280;35974;47.752;10.290;2022-09-03T02:06:56;93570.03;;;12.38;88.29
50093;BME280;35974;47.752;10.290;2022-09-03T02:09:26;93588.59;;;12.37;88.77
50093;BME280;35974;47.752;10.290;2022-09-03T02:12:17;93571.16;;;12.42;88.29
50093;BME280;35974;47.752;10.290;2022-09-03T02:14:45;93572.34;;;12.28;88.31
50093;BME280;35974;47.752;10.290;2022-09-03T02:17:12;93565.31;;;12.10;88.45
50093;BME280;35974;47.752;10.290;2022-09-03T02:19:38;93554.91;;;12.03;87.67
50093;BME280;35974;47.752;10.290;2022-09-03T02:22:05;93591.25;;;12.18;88.31
50093;BME280;35974;47.752;10.290;2022-09-03T02:24:32;93585.63;;;12.15;89.30
50093;BME280;35974;47.752;10.290;2022-09-03T02:26:59;93590.97;;;12.57;87.91
50093;BME280;35974;47.752;10.290;2022-09-03T02:29:26;93592.09;;;12.31;89.51
50093;BME280;35974;47.752;10.290;2022-09-03T02:31:53;93589.00;;;12.22;90.27
50093;BME280;35974;47.752;10.290;2022-09-03T02:34:19;93573.78;;;12.42;89.00
50093;BME280;35974;47.752;10.290;2022-09-03T02:36:46;93605.81;;;12.63;89.06
50093;BME280;35974;47.752;10.290;2022-09-03T02:39:14;93612.69;;;12.64;89.90
50093;BME280;35974;47.752;10.290;2022-09-03T02:41:41;93608.31;;;12.58;89.84
50093;BME280;35974;47.752;10.290;2022-09-03T02:44:13;93612.69;;;12.64;89.85
50093;BME280;35974;47.752;10.290;2022-09-03T02:46:59;93633.75;;;12.88;88.83
50093;BME280;35974;47.752;10.290;2022-09-03T02:49:27;93630.47;;;12.62;90.68
50093;BME280;35974;47.752;10.290;2022-09-03T02:52:01;93645.00;;;12.95;88.69
50093;BME280;35974;47.752;10.290;2022-09-03T02:54:32;93543.00;;;12.19;89.10
50093;BME280;35974;47.752;10.290;2022-09-03T02:57:01;93649.16;;;12.84;89.77
50093;BME280;35974;47.752;10.290;2022-09-03T02:59:27;93638.31;;;12.80;90.54
50093;BME280;35974;47.752;10.290;2022-09-03T03:01:54;93639.88;;;13.00;89.96
50093;BME280;35974;47.752;10.290;2022-09-03T03:04:26;93660.56;;;13.08;89.73
50093;BME280;35974;47.752;10.290;2022-09-03T03:06:53;93638.13;;;12.94;89.95
50093;BME280;35974;47.752;10.290;2022-09-03T03:09:19;93645.69;;;13.02;89.64
50093;BME280;35974;47.752;10.290;2022-09-03T03:11:45;93633.56;;;13.01;89.30
50093;BME280;35974;47.752;10.290;2022-09-03T03:14:12;93655.88;;;13.10;88.44
50093;BME280;35974;47.752;10.290;2022-09-03T03:16:38;93662.84;;;13.16;87.68
50093;BME280;35974;47.752;10.290;2022-09-03T03:19:05;93666.69;;;13.02;88.65
50093;BME280;35974;47.752;10.290;2022-09-03T03:21:31;93669.19;;;12.97;88.83
50093;BME280;35974;47.752;10.290;2022-09-03T03:24:00;93638.75;;;12.77;88.60
50093;BME280;35974;47.752;10.290;2022-09-03T03:26:26;93673.56;;;13.03;88.58
50093;BME280;35974;47.752;10.290;2022-09-03T03:28:58;93694.59;;;13.15;88.23
50093;BME280;35974;47.752;10.290;2022-09-03T03:31:26;93636.50;;;12.93;88.12
50093;BME280;35974;47.752;10.290;2022-09-03T03:33:54;93664.09;;;13.14;87.88
50093;BME280;35974;47.752;10.290;2022-09-03T03:36:22;93681.53;;;13.39;88.49
50093;BME280;35974;47.752;10.290;2022-09-03T03:38:52;93658.28;;;13.24;87.89
50093;BME280;35974;47.752;10.290;2022-09-03T03:41:21;93681.69;;;13.13;89.23
50093;BME280;35974;47.752;10.290;2022-09-03T03:43:56;93671.09;;;13.32;88.21
50093;BME280;35974;47.752;10.290;2022-09-03T03:46:24;93657.81;;;13.03;90.19
50093;BME280;35974;47.752;10.290;2022-09-03T03:48:51;93656.53;;;13.36;89.34
50093;BME280;35974;47.752;10.290;2022-09-03T03:51:18;93659.19;;;13.17;90.08
50093;BME280;35974;47.752;10.290;2022-09-03T03:53:45;93638.66;;;13.14;89.47
50093;BME280;35974;47.752;10.290;2022-09-03T03:56:13;93677.34;;;13.49;89.88
50093;BME280;35974;47.752;10.290;2022-09-03T03:58:40;93646.47;;;13.33;89.91
50093;BME280;35974;47.752;10.290;2022-09-03T04:01:13;93660.03;;;13.30;90.17
50093;BME280;35974;47.752;10.290;2022-09-03T04:03:41;93629.16;;;13.13;90.85
50093;BME280;35974;47.752;10.290;2022-09-03T04:06:09;93680.22;;;13.60;89.21
50093;BME280;35974;47.752;10.290;2022-09-03T04:08:39;93681.69;;;13.55;90.29
50093;BME280;35974;47.752;10.290;2022-09-03T04:11:08;93689.91;;;13.47;90.59
50093;BME280;35974;47.752;10.290;2022-09-03T04:13:37;93682.03;;;13.47;90.27
50093;BME280;35974;47.752;10.290;2022-09-03T04:16:05;93684.00;;;13.64;89.68
50093;BME280;35974;47.752;10.290;2022-09-03T04:18:33;93675.78;;;13.72;89.43
50093;BME280;35974;47.752;10.290;2022-09-03T04:21:02;93670.63;;;13.65;89.28
50093;BME280;35974;47.752;10.290;2022-09-03T04:23:31;93659.53;;;13.75;89.18
50093;BME280;35974;47.752;10.290;2022-09-03T04:25:58;93675.56;;;14.09;87.21
50093;BME280;35974;47.752;10.290;2022-09-03T04:28:25;93652.56;;;13.93;87.16
50093;BME280;35974;47.752;10.290;2022-09-03T04:30:52;93636.00;;;13.68;88.49
50093;BME280;35974;47.752;10.290;2022-09-03T04:33:19;93623.53;;;13.64;88.86
50093;BME280;35974;47.752;10.290;2022-09-03T04:35:45;93637.81;;;13.68;89.34
50093;BME280;35974;47.752;10.290;2022-09-03T04:38:12;93657.47;;;13.77;89.47
50093;BME280;35974;47.752;10.290;2022-09-03T04:40:38;93681.06;;;13.96;89.75
50093;BME280;35974;47.752;10.290;2022-09-03T04:43:05;93652.13;;;13.96;88.77
50093;BME280;35974;47.752;10.290;2022-09-03T04:45:31;93648.78;;;13.88;88.58
50093;BME280;35974;47.752;10.290;2022-09-03T04:48:02;93684.34;;;14.03;88.98
50093;BME280;35974;47.752;10.290;2022-09-03T04:50:31;93686.53;;;13.82;90.59
50093;BME280;35974;47.752;10.290;2022-09-03T04:53:03;93686.78;;;13.93;90.27
50093;BME280;35974;47.752;10.290;2022-09-03T04:55:35;93692.91;;;13.63;92.25
50093;BME280;35974;47.752;10.290;2022-09-03T04:58:02;93679.75;;;13.63;91.91
50093;BME280;35974;47.752;10.290;2022-09-03T05:00:28;93700.72;;;14.05;89.81
50093;BME280;35974;47.752;10.290;2022-09-03T05:02:59;93690.41;;;13.91;89.89
50093;BME280;35974;47.752;10.290;2022-09-03T05:05:25;93681.47;;;14.16;88.55
50093;BME280;35974;47.752;10.290;2022-09-03T05:07:52;93693.41;;;14.07;89.63
50093;BME280;35974;47.752;10.290;2022-09-03T05:10:18;93693.88;;;14.04;89.94
50093;BME280;35974;47.752;10.290;2022-09-03T05:13:03;93683.56;;;14.14;89.83
50093;BME280;35974;47.752;10.290;2022-09-03T05:15:31;93680.81;;;14.09;90.69
50093;BME280;35974;47.752;10.290;2022-09-03T05:18:02;93685.50;;;14.19;89.90
50093;BME280;35974;47.752;10.290;2022-09-03T05:20:30;93708.50;;;14.23;90.33
50093;BME280;35974;47.752;10.290;2022-09-03T05:23:01;93696.25;;;14.17;91.19
50093;BME280;35974;47.752;10.290;2022-09-03T05:25:29;93710.66;;;14.15;90.96
50093;BME280;35974;47.752;10.290;2022-09-03T05:27:58;93711.94;;;14.12;91.43
50093;BME280;35974;47.752;10.290;2022-09-03T05:30:25;93704.59;;;14.14;91.49
50093;BME280;35974;47.752;10.290;2022-09-03T05:32:52;93691.69;;;14.01;91.49
50093;BME280;35974;47.752;10.290;2022-09-03T05:35:18;93708.94;;;14.20;91.60
50093;BME280;35974;47.752;10.290;2022-09-03T05:37:53;93707.91;;;14.21;91.77
50093;BME280;35974;47.752;10.290;2022-09-03T05:40:20;93704.59;;;14.14;92.63
50093;BME280;35974;47.752;10.290;2022-09-03T05:42:46;93707.09;;;14.33;91.48
50093;BME280;35974;47.752;10.290;2022-09-03T05:45:13;93691.34;;;14.09;92.11
50093;BME280;35974;47.752;10.290;2022-09-03T05:47:39;93697.50;;;14.26;91.66
50093;BME280;35974;47.752;10.290;2022-09-03T05:50:07;93722.75;;;14.39;91.81
50093;BME280;35974;47.752;10.290;2022-09-03T05:52:34;93713.81;;;14.52;91.47
50093;BME280;35974;47.752;10.290;2022-09-03T05:55:01;93657.19;;;14.38;90.80
50093;BME280;35974;47.752;10.290;2022-09-03T05:57:28;93716.34;;;14.71;90.78
50093;BME280;35974;47.752;10.290;2022-09-03T05:59:56;93703.66;;;14.44;90.97
50093;BME280;35974;47.752;10.290;2022-09-03T06:02:22;93697.25;;;14.40;91.64
50093;BME280;35974;47.752;10.290;2022-09-03T06:04:49;93714.78;;;14.46;92.15
50093;BME280;35974;47.752;10.290;2022-09-03T06:07:16;93736.81;;;14.69;91.41
50093;BME280;35974;47.752;10.290;2022-09-03T06:09:42;93712.59;;;14.43;92.07
50093;BME280;35974;47.752;10.290;2022-09-03T06:12:09;93711.66;;;14.49;92.51
50093;BME280;35974;47.752;10.290;2022-09-03T06:14:35;93692.88;;;14.57;92.59
50093;BME280;35974;47.752;10.290;2022-09-03T06:17:02;93711.75;;;14.78;92.86
50093;BME280;35974;47.752;10.290;2022-09-03T06:19:28;93723.41;;;14.82;93.43
50093;BME280;35974;47.752;10.290;2022-09-03T06:21:55;93717.31;;;14.93;93.25
50093;BME280;35974;47.752;10.290;2022-09-03T06:24:21;93699.44;;;14.95;92.33
50093;BME280;35974;47.752;10.290;2022-09-03T06:26:56;93720.03;;;14.98;93.04
50093;BME280;35974;47.752;10.290;2022-09-03T06:29:23;93706.78;;;14.93;92.85
50093;BME280;35974;47.752;10.290;2022-09-03T06:31:49;93683.22;;;14.75;92.78
50093;BME280;35974;47.752;10.290;2022-09-03T06:34:16;93726.81;;;15.23;92.11
50093;BME280;35974;47.752;10.290;2022-09-03T06:36:44;93705.03;;;14.99;92.13
50093;BME280;35974;47.752;10.290;2022-09-03T06:39:11;93700.19;;;15.08;92.34
50093;BME280;35974;47.752;10.290;2022-09-03T06:41:37;93716.28;;;15.23;92.07
50093;BME280;35974;47.752;10.290;2022-09-03T06:44:06;93723.97;;;15.42;91.70
50093;BME280;35974;47.752;10.290;2022-09-03T06:46:38;93696.50;;;15.37;90.93
50093;BME280;35974;47.752;10.290;2022-09-03T06:49:07;93729.28;;;15.75;90.52
50093;BME280;35974;47.752;10.290;2022-09-03T06:51:34;93726.28;;;15.84;90.38
50093;BME280;35974;47.752;10.290;2022-09-03T06:54:11;93682.44;;;15.49;90.32
50093;BME280;35974;47.752;10.290;2022-09-03T06:56:39;93697.47;;;15.48;90.89
50093;BME280;35974;47.752;10.290;2022-09-03T06:59:08;93707.56;;;15.68;90.87
50093;BME280;35974;47.752;10.290;2022-09-03T07:01:36;93715.09;;;15.77;90.94
50093;BME280;35974;47.752;10.290;2022-09-03T07:04:09;93735.41;;;15.93;90.88
50093;BME280;35974;47.752;10.290;2022-09-03T07:06:38;93730.44;;;16.14;90.93
50093;BME280;35974;47.752;10.290;2022-09-03T07:09:06;93733.78;;;16.26;90.78
50093;BME280;35974;47.752;10.290;2022-09-03T07:11:33;93733.22;;;16.24;90.79
50093;BME280;35974;47.752;10.290;2022-09-03T07:14:02;93691.41;;;16.16;90.90
50093;BME280;35974;47.752;10.290;2022-09-03T07:16:33;93707.19;;;16.50;90.24
50093;BME280;35974;47.752;10.290;2022-09-03T07:19:00;93714.75;;;16.63;90.76
50093;BME280;35974;47.752;10.290;2022-09-03T07:21:30;93721.31;;;16.82;89.67
50093;BME280;35974;47.752;10.290;2022-09-03T07:23:59;93723.06;;;16.94;88.84
50093;BME280;35974;47.752;10.290;2022-09-03T07:26:28;93710.41;;;16.96;88.82
50093;BME280;35974;47.752;10.290;2022-09-03T07:28:56;93718.09;;;16.97;87.90
50093;BME280;35974;47.752;10.290;2022-09-03T07:31:25;93715.00;;;16.83;88.28
50093;BME280;35974;47.752;10.290;2022-09-03T07:34:06;93715.09;;;16.89;88.24
50093;BME280;35974;47.752;10.290;2022-09-03T07:36:40;93715.16;;;16.94;88.12
50093;BME280;35974;47.752;10.290;2022-09-03T07:39:09;93712.56;;;16.99;88.02
50093;BME280;35974;47.752;10.290;2022-09-03T07:41:37;93716.91;;;17.10;87.60
50093;BME280;35974;47.752;10.290;2022-09-03T07:44:04;93703.16;;;17.08;86.75
50093;BME280;35974;47.752;10.290;2022-09-03T07:46:32;93697.06;;;17.08;85.90
50093;BME280;35974;47.752;10.290;2022-09-03T07:49:00;93690.38;;;17.00;85.69
50093;BME280;35974;47.752;10.290;2022-09-03T07:51:32;93696.59;;;17.11;85.34
50093;BME280;35974;47.752;10.290;2022-09-03T07:54:00;93683.09;;;17.12;85.34
50093;BME280;35974;47.752;10.290;2022-09-03T07:56:28;93682.09;;;17.18;85.12
50093;BME280;35974;47.752;10.290;2022-09-03T07:58:57;93682.22;;;17.29;82.97
50093;BME280;35974;47.752;10.290;2022-09-03T08:01:25;93704.94;;;17.30;82.46
50093;BME280;35974;47.752;10.290;2022-09-03T08:03:54;93707.84;;;17.55;82.18
50093;BME280;35974;47.752;10.290;2022-09-03T08:06:24;93680.38;;;17.62;81.40
50093;BME280;35974;47.752;10.290;2022-09-03T08:08:59;93700.75;;;17.93;80.15
50093;BME280;35974;47.752;10.290;2022-09-03T08:11:40;93676.78;;;17.73;79.74
50093;BME280;35974;47.752;10.290;2022-09-03T08:14:11;93704.84;;;18.06;80.15
50093;BME280;35974;47.752;10.290;2022-09-03T08:16:43;93698.91;;;18.32;79.03
50093;BME280;35974;47.752;10.290;2022-09-03T08:19:12;93683.91;;;18.42;78.31
50093;BME280;35974;47.752;10.290;2022-09-03T08:21:40;93709.19;;;18.71;77.93
50093;BME280;35974;47.752;10.290;2022-09-03T08:24:08;93710.81;;;18.77;77.52
50093;BME280;35974;47.752;10.290;2022-09-03T08:26:36;93699.75;;;18.85;77.00
50093;BME280;35974;47.752;10.290;2022-09-03T08:29:04;93695.00;;;18.97;77.17
50093;BME280;35974;47.752;10.290;2022-09-03T08:31:32;93682.81;;;18.96;76.53
50093;BME280;35974;47.752;10.290;2022-09-03T08:34:00;93695.06;;;19.08;75.61
50093;BME280;35974;47.752;10.290;2022-09-03T08:36:34;93682.84;;;19.12;75.18
50093;BME280;35974;47.752;10.290;2022-09-03T08:39:03;93669.00;;;18.94;75.54
50093;BME280;35974;47.752;10.290;2022-09-03T08:44:58;93672.75;;;19.03;72.00
50093;BME280;35974;47.752;10.290;2022-09-03T08:47:56;93683.94;;;19.16;72.63
50093;BME280;35974;47.752;10.290;2022-09-03T08:50:28;93658.44;;;19.05;73.59
50093;BME280;35974;47.752;10.290;2022-09-03T08:53:02;93680.75;;;19.19;72.77
50093;BME280;35974;47.752;10.290;2022-09-03T08:55:51;93675.47;;;19.29;72.51
50093;BME280;35974;47.752;10.290;2022-09-03T08:58:24;93675.47;;;19.19;73.05
50093;BME280;35974;47.752;10.290;2022-09-03T09:14:33;93698.34;;;19.61;67.79
50093;BME280;35974;47.752;10.290;2022-09-03T09:20:03;93677.59;;;19.37;68.16
50093;BME280;35974;47.752;10.290;2022-09-03T09:22:41;93693.59;;;19.79;65.84
50093;BME280;35974;47.752;10.290;2022-09-03T09:25:16;93692.53;;;19.90;64.71
50093;BME280;35974;47.752;10.290;2022-09-03T09:27:51;93686.16;;;19.96;64.52
50093;BME280;35974;47.752;10.290;2022-09-03T09:30:21;93680.28;;;20.15;65.87
50093;BME280;35974;47.752;10.290;2022-09-03T09:32:47;93579.47;;;19.53;64.88
50093;BME280;35974;47.752;10.290;2022-09-03T09:35:16;93670.75;;;19.98;65.74
50093;BME280;35974;47.752;10.290;2022-09-03T09:37:48;93685.06;;;20.28;62.40
50093;BME280;35974;47.752;10.290;2022-09-03T09:40:42;93683.50;;;20.17;63.08
50093;BME280;35974;47.752;10.290;2022-09-03T09:43:14;93686.13;;;20.27;63.49
50093;BME280;35974;47.752;10.290;2022-09-03T09:45:44;93629.31;;;20.12;63.11
50093;BME280;35974;47.752;10.290;2022-09-03T09:50:47;93673.88;;;20.41;62.31
50093;BME280;35974;47.752;10.290;2022-09-03T09:53:16;93670.66;;;20.55;62.26
50093;BME280;35974;47.752;10.290;2022-09-03T09:55:54;93647.84;;;20.38;61.89
50093;BME280;35974;47.752;10.290;2022-09-03T09:58:23;93657.38;;;20.49;61.26
50093;BME280;35974;47.752;10.290;2022-09-03T10:00:55;93650.78;;;20.32;62.35
50093;BME280;35974;47.752;10.290;2022-09-03T10:03:25;93663.94;;;20.83;59.80
50093;BME280;35974;47.752;10.290;2022-09-03T10:06:02;93630.19;;;20.78;58.44
50093;BME280;35974;47.752;10.290;2022-09-03T10:08:48;93644.50;;;20.88;60.66
50093;BME280;35974;47.752;10.290;2022-09-03T10:11:16;93647.09;;;21.03;60.27
50093;BME280;35974;47.752;10.290;2022-09-03T10:13:45;93646.09;;;20.89;58.87
50093;BME280;35974;47.752;10.290;2022-09-03T10:16:26;93652.25;;;21.29;58.82
50093;BME280;35974;47.752;10.290;2022-09-03T10:19:08;93667.06;;;21.50;58.39
50093;BME280;35974;47.752;10.290;2022-09-03T10:21:53;93644.16;;;21.49;58.55
50093;BME280;35974;47.752;10.290;2022-09-03T10:27:15;93670.50;;;21.90;57.09
50093;BME280;35974;47.752;10.290;2022-09-03T10:29:44;93650.50;;;21.58;59.87
50093;BME280;35974;47.752;10.290;2022-09-03T10:32:24;93637.47;;;21.86;59.40
50093;BME280;35974;47.752;10.290;2022-09-03T10:35:22;93644.09;;;21.94;59.47
50093;BME280;35974;47.752;10.290;2022-09-03T10:38:09;93651.25;;;21.99;55.44
50093;BME280;35974;47.752;10.290;2022-09-03T10:43:51;93664.94;;;22.16;54.63
50093;BME280;35974;47.752;10.290;2022-09-03T10:46:28;93658.72;;;21.97;56.41
50093;BME280;35974;47.752;10.290;2022-09-03T10:49:13;93653.59;;;22.35;56.67
50093;BME280;35974;47.752;10.290;2022-09-03T10:52:02;93599.53;;;22.00;58.00
50093;BME280;35974;47.752;10.290;2022-09-03T10:57:30;93663.50;;;22.24;58.69
50093;BME280;35974;47.752;10.290;2022-09-03T11:00:07;93660.69;;;22.15;56.91
50093;BME280;35974;47.752;10.290;2022-09-03T11:10:46;93632.41;;;21.55;57.64
50093;BME280;35974;47.752;10.290;2022-09-03T11:13:38;93648.38;;;21.55;58.21
50093;BME280;35974;47.752;10.290;2022-09-03T11:16:12;93668.81;;;21.65;57.85
50093;BME280;35974;47.752;10.290;2022-09-03T11:18:54;93655.06;;;21.53;58.99
50093;BME280;35974;47.752;10.290;2022-09-03T11:21:25;93660.34;;;21.58;58.82
50093;BME280;35974;47.752;10.290;2022-09-03T11:24:21;93662.91;;;21.29;59.85
50093;BME280;35974;47.752;10.290;2022-09-03T11:26:54;93644.75;;;21.36;59.88
50093;BME280;35974;47.752;10.290;2022-09-03T11:29:58;93647.81;;;21.58;60.02
50093;BME280;35974;47.752;10.290;2022-09-03T11:32:59;93645.34;;;21.67;58.88
50093;BME280;35974;47.752;10.290;2022-09-03T11:40:35;93622.91;;;22.08;57.36
50093;BME280;35974;47.752;10.290;2022-09-03T11:43:24;93648.13;;;22.45;57.05
50093;BME280;35974;47.752;10.290;2022-09-03T11:48:36;93647.69;;;22.38;55.96
50093;BME280;35974;47.752;10.290;2022-09-03T11:51:03;93625.91;;;22.30;55.59
50093;BME280;35974;47.752;10.290;2022-09-03T11:53:56;93656.06;;;22.50;56.16
50093;BME280;35974;47.752;10.290;2022-09-03T11:56:23;93636.47;;;22.41;55.19
50093;BME280;35974;47.752;10.290;2022-09-03T12:01:38;93659.06;;;22.14;57.71
50093;BME280;35974;47.752;10.290;2022-09-03T12:04:12;93659.84;;;22.49;56.65
50093;BME280;35974;47.752;10.290;2022-09-03T12:09:53;93671.19;;;21.67;59.56
50093;BME280;35974;47.752;10.290;2022-09-03T12:18:02;93685.91;;;19.87;60.24
50093;BME280;35974;47.752;10.290;2022-09-03T12:20:46;93595.34;;;19.12;60.86
50093;BME280;35974;47.752;10.290;2022-09-03T12:23:33;93668.13;;;20.03;59.50
50093;BME280;35974;47.752;10.290;2022-09-03T12:26:20;93625.38;;;19.79;59.26
50093;BME280;35974;47.752;10.290;2022-09-03T12:28:51;93648.97;;;20.11;59.96
50093;BME280;35974;47.752;10.290;2022-09-03T12:31:25;93647.38;;;19.59;59.19
50093;BME280;35974;47.752;10.290;2022-09-03T12:34:09;93664.38;;;19.53;60.52
50093;BME280;35974;47.752;10.290;2022-09-03T12:36:40;93669.13;;;19.41;61.30
50093;BME280;35974;47.752;10.290;2022-09-03T12:41:51;93689.78;;;19.18;60.72
50093;BME280;35974;47.752;10.290;2022-09-03T12:44:48;93687.84;;;18.93;61.95
50093;BME280;35974;47.752;10.290;2022-09-03T12:47:17;93718.88;;;18.97;60.73
50093;BME280;35974;47.752;10.290;2022-09-03T12:52:42;93748.31;;;18.53;60.96
50093;BME280;35974;47.752;10.290;2022-09-03T12:57:44;93755.53;;;18.20;59.87
50093;BME280;35974;47.752;10.290;2022-09-03T13:00:14;93786.41;;;17.82;60.16
50093;BME280;35974;47.752;10.290;2022-09-03T13:03:06;93769.84;;;17.37;63.30
50093;BME280;35974;47.752;10.290;2022-09-03T13:05:43;93759.22;;;17.60;61.45
50093;BME280;35974;47.752;10.290;2022-09-03T13:08:25;93747.00;;;17.53;62.00
50093;BME280;35974;47.752;10.290;2022-09-03T13:10:56;93746.50;;;17.56;64.22
50093;BME280;35974;47.752;10.290;2022-09-03T13:13:28;93771.28;;;17.50;62.76
50093;BME280;35974;47.752;10.290;2022-09-03T13:21:47;93767.53;;;17.46;70.46
50093;BME280;35974;47.752;10.290;2022-09-03T13:24:36;93765.63;;;17.14;73.91
50093;BME280;35974;47.752;10.290;2022-09-03T13:30:08;93768.28;;;16.75;74.42
50093;BME280;35974;47.752;10.290;2022-09-03T13:35:46;93786.28;;;17.17;78.08
50093;BME280;35974;47.752;10.290;2022-09-03T13:38:33;93769.28;;;17.13;77.56
50093;BME280;35974;47.752;10.290;2022-09-03T13:41:31;93790.06;;;17.27;78.76
50093;BME280;35974;47.752;10.290;2022-09-03T13:44:11;93779.50;;;17.27;79.47
50093;BME280;35974;47.752;10.290;2022-09-03T13:46:49;93755.53;;;17.11;80.35
50093;BME280;35974;47.752;10.290;2022-09-03T13:49:38;93782.31;;;17.42;78.98
50093;BME280;35974;47.752;10.290;2022-09-03T13:55:20;93765.69;;;17.74;77.61
50093;BME280;35974;47.752;10.290;2022-09-03T13:57:53;93757.84;;;17.84;78.06
50093;BME280;35974;47.752;10.290;2022-09-03T14:00:28;93773.84;;;17.95;80.84
50093;BME280;35974;47.752;10.290;2022-09-03T14:03:16;93763.88;;;18.02;80.13
50093;BME280;35974;47.752;10.290;2022-09-03T14:12:02;93731.06;;;18.93;73.79
50093;BME280;35974;47.752;10.290;2022-09-03T14:14:52;93761.72;;;18.79;73.89
50093;BME280;35974;47.752;10.290;2022-09-03T14:25:56;93753.50;;;19.44;71.32
50093;BME280;35974;47.752;10.290;2022-09-03T14:28:43;93754.13;;;19.87;67.23
50093;BME280;35974;47.752;10.290;2022-09-03T14:31:13;93754.69;;;19.84;69.02
50093;BME280;35974;47.752;10.290;2022-09-03T14:36:51;93726.53;;;19.83;65.61
50093;BME280;35974;47.752;10.290;2022-09-03T14:39:33;93752.00;;;20.30;65.47
50093;BME280;35974;47.752;10.290;2022-09-03T14:45:20;93733.91;;;19.60;65.61
50093;BME280;35974;47.752;10.290;2022-09-03T14:51:11;93753.00;;;19.52;67.79
50093;BME280;35974;47.752;10.290;2022-09-03T14:54:29;93747.22;;;20.37;63.22
50093;BME280;35974;47.752;10.290;2022-09-03T15:00:17;93736.56;;;20.68;57.52
50093;BME280;35974;47.752;10.290;2022-09-03T15:03:06;93734.38;;;20.91;54.94
50093;BME280;35974;47.752;10.290;2022-09-03T15:10:46;93723.25;;;20.78;57.38
50093;BME280;35974;47.752;10.290;2022-09-03T15:13:41;93705.78;;;20.31;56.14
50093;BME280;35974;47.752;10.290;2022-09-03T15:16:28;93719.59;;;20.12;54.88
50093;BME280;35974;47.752;10.290;2022-09-03T15:19:10;93702.28;;;20.56;56.64
50093;BME280;35974;47.752;10.290;2022-09-03T15:29:50;93708.19;;;21.18;53.94
50093;BME280;35974;47.752;10.290;2022-09-03T15:34:58;93714.66;;;21.02;55.41
50093;BME280;35974;47.752;10.290;2022-09-03T15:40:04;93714.47;;;21.38;55.32
50093;BME280;35974;47.752;10.290;2022-09-03T15:42:35;93711.53;;;21.45;53.61
50093;BME280;35974;47.752;10.290;2022-09-03T15:45:13;93698.38;;;21.09;54.50
50093;BME280;35974;47.752;10.290;2022-09-03T15:50:34;93726.59;;;21.65;53.12
50093;BME280;35974;47.752;10.290;2022-09-03T15:53:18;93722.91;;;21.55;53.41
50093;BME280;35974;47.752;10.290;2022-09-03T15:56:11;93724.66;;;21.26;52.92
50093;BME280;35974;47.752;10.290;2022-09-03T15:58:57;93721.97;;;21.31;53.86
50093;BME280;35974;47.752;10.290;2022-09-03T16:01:34;93713.06;;;20.96;54.23
50093;BME280;35974;47.752;10.290;2022-09-03T16:04:24;93711.50;;;20.90;54.88
50093;BME280;35974;47.752;10.290;2022-09-03T16:07:08;93717.91;;;20.89;54.55
50093;BME280;35974;47.752;10.290;2022-09-03T16:15:06;93731.56;;;21.27;54.49
50093;BME280;35974;47.752;10.290;2022-09-03T16:17:49;93694.13;;;21.13;54.98
50093;BME280;35974;47.752;10.290;2022-09-03T16:20:42;93731.59;;;21.16;56.86
50093;BME280;35974;47.752;10.290;2022-09-03T16:23:17;93707.06;;;20.75;58.01